createdAt,value
2022-12-03T00:00:42.342Z,56.95
2022-12-03T00:03:12.015Z,59.35
2022-12-03T00:05:48.325Z,59.10
2022-12-03T00:08:17.660Z,60.75
2022-12-03T00:10:45.989Z,61.45
2022-12-03T00:13:14.278Z,47.53
2022-12-03T00:15:42.552Z,55.10
2022-12-03T00:18:12.156Z,49.90
2022-12-03T00:20:40.532Z,56.15
2022-12-03T00:23:08.882Z,55.78
2022-12-03T00:25:37.209Z,57.13
2022-12-03T00:28:05.919Z,60.15
2022-12-03T00:30:34.290Z,56.00
2022-12-03T00:33:02.540Z,52.47
2022-12-03T00:35:32.145Z,54.50
2022-12-03T00:38:00.412Z,58.13
2022-12-03T00:40:28.838Z,53.60
2022-12-03T00:42:57.136Z,55.85
2022-12-03T00:45:25.421Z,55.85
2022-12-03T00:47:53.706Z,55.20
2022-12-03T00:50:21.995Z,52.17
2022-12-03T00:52:51.608Z,51.22
2022-12-03T00:55:19.871Z,57.00
2022-12-03T00:57:48.182Z,47.05
2022-12-03T01:00:17.083Z,51.72
2022-12-03T01:02:45.455Z,54.97
2022-12-03T01:05:13.744Z,51.10
2022-12-03T01:07:42.128Z,56.20
2022-12-03T01:10:12.892Z,50.05
2022-12-03T01:12:41.188Z,64.80
2022-12-03T01:15:10.320Z,66.55
2022-12-03T01:17:38.892Z,56.65
2022-12-03T01:20:09.338Z,61.35
2022-12-03T01:22:37.762Z,71.82
2022-12-03T01:25:06.717Z,48.78
2022-12-03T01:27:36.292Z,50.55
2022-12-03T01:30:05.568Z,42.30
2022-12-03T01:32:32.868Z,45.05
2022-12-03T01:35:01.105Z,43.80
2022-12-03T01:37:29.787Z,50.53
2022-12-03T01:39:58.161Z,55.20
2022-12-03T01:42:28.944Z,58.38
2022-12-03T01:44:59.585Z,38.13
2022-12-03T01:50:00.384Z,53.10
2022-12-03T01:52:32.051Z,46.35
2022-12-03T01:55:01.881Z,37.15
2022-12-03T01:57:41.130Z,49.15
2022-12-03T02:00:15.139Z,53.08
2022-12-03T02:02:43.544Z,37.58
2022-12-03T02:05:18.116Z,45.25
2022-12-03T02:07:46.576Z,47.40
2022-12-03T02:10:16.226Z,41.22
2022-12-03T02:12:48.295Z,39.72
2022-12-03T02:15:17.999Z,39.85
2022-12-03T02:17:46.471Z,41.20
2022-12-03T02:20:15.414Z,43.00
2022-12-03T02:22:47.753Z,42.38
2022-12-03T02:25:19.233Z,44.28
2022-12-03T02:27:48.438Z,44.17
2022-12-03T02:30:18.753Z,37.15
2022-12-03T02:32:47.703Z,46.03
2022-12-03T02:35:17.504Z,48.75
2022-12-03T02:37:47.238Z,46.53
2022-12-03T02:40:20.095Z,41.17
2022-12-03T02:42:48.306Z,39.33
2022-12-03T02:45:18.228Z,44.15
2022-12-03T02:47:48.471Z,43.58
2022-12-03T02:50:19.528Z,44.90
2022-12-03T02:52:48.093Z,35.47
2022-12-03T02:55:18.310Z,49.83
2022-12-03T02:57:48.538Z,47.03
2022-12-03T03:00:18.205Z,41.95
2022-12-03T03:02:47.223Z,43.57
2022-12-03T03:05:16.500Z,45.97
2022-12-03T03:07:44.867Z,40.70
2022-12-03T03:10:15.864Z,44.00
2022-12-03T03:12:45.449Z,40.78
2022-12-03T03:15:14.614Z,41.43
2022-12-03T03:17:43.914Z,43.45
2022-12-03T03:20:12.793Z,33.97
2022-12-03T03:22:42.650Z,40.17
2022-12-03T03:25:13.682Z,38.72
2022-12-03T03:27:42.618Z,37.88
2022-12-03T03:30:13.348Z,38.03
2022-12-03T03:32:42.212Z,43.75
2022-12-03T03:35:11.376Z,48.40
2022-12-03T03:37:39.955Z,41.80
2022-12-03T03:40:09.812Z,51.47
2022-12-03T03:42:39.318Z,46.97
2022-12-03T03:45:09.172Z,45.47
2022-12-03T03:47:38.923Z,50.72
2022-12-03T03:50:08.979Z,48.10
2022-12-03T03:52:37.533Z,45.75
2022-12-03T03:55:07.122Z,49.65
2022-12-03T03:57:35.376Z,49.10
2022-12-03T04:00:06.330Z,53.53
2022-12-03T04:02:34.751Z,47.30
2022-12-03T04:05:04.986Z,39.95
2022-12-03T04:07:33.355Z,42.38
2022-12-03T04:10:21.661Z,45.15
2022-12-03T04:12:57.907Z,38.40
2022-12-03T04:15:26.804Z,30.58
2022-12-03T04:18:13.063Z,44.17
2022-12-03T04:20:42.883Z,44.47
2022-12-03T04:23:10.212Z,55.38
2022-12-03T04:25:58.266Z,46.22
2022-12-03T04:28:52.528Z,41.90
2022-12-03T04:31:38.432Z,38.33
2022-12-03T04:34:24.456Z,40.80
2022-12-03T04:36:54.115Z,49.95
2022-12-03T04:39:22.675Z,45.17
2022-12-03T04:41:51.069Z,48.67
2022-12-03T04:44:36.176Z,45.15
2022-12-03T04:47:07.358Z,49.83
2022-12-03T04:49:36.430Z,39.65
2022-12-03T04:52:06.498Z,49.80
2022-12-03T04:54:35.328Z,30.50
2022-12-03T04:57:04.167Z,46.85
2022-12-03T04:59:32.508Z,41.95
2022-12-03T05:02:00.959Z,42.33
2022-12-03T05:04:29.502Z,46.30
2022-12-03T05:06:57.886Z,45.47
2022-12-03T05:09:27.623Z,46.05
2022-12-03T05:11:55.907Z,44.67
2022-12-03T05:14:24.195Z,32.10
2022-12-03T05:16:52.525Z,48.50
2022-12-03T05:19:20.878Z,44.80
2022-12-03T05:21:48.130Z,39.63
2022-12-03T05:24:16.407Z,39.10
2022-12-03T05:26:46.087Z,36.92
2022-12-03T05:29:14.515Z,35.57
2022-12-03T05:31:42.767Z,34.95
2022-12-03T05:34:11.042Z,37.67
2022-12-03T05:36:39.340Z,36.83
2022-12-03T05:39:08.018Z,41.97
2022-12-03T05:41:53.914Z,36.90
2022-12-03T05:44:23.534Z,37.13
2022-12-03T05:46:51.802Z,42.42
2022-12-03T05:49:20.152Z,24.58
2022-12-03T05:51:49.188Z,36.05
2022-12-03T05:54:19.717Z,37.22
2022-12-03T05:56:48.095Z,42.42
2022-12-03T05:59:16.387Z,40.92
2022-12-03T06:01:45.976Z,35.88
2022-12-03T06:04:14.279Z,44.38
2022-12-03T06:06:42.528Z,37.53
2022-12-03T06:09:10.803Z,41.60
2022-12-03T06:11:40.246Z,44.40
2022-12-03T06:14:08.875Z,46.67
2022-12-03T06:16:37.270Z,46.25
2022-12-03T06:19:06.887Z,46.10
2022-12-03T06:21:35.127Z,27.88
2022-12-03T06:24:03.424Z,43.50
2022-12-03T06:26:31.673Z,42.85
2022-12-03T06:28:59.956Z,37.30
2022-12-03T06:31:28.266Z,45.15
2022-12-03T06:33:56.545Z,50.63
2022-12-03T06:36:27.623Z,44.00
2022-12-03T06:38:56.076Z,47.50
2022-12-03T06:41:24.273Z,43.38
2022-12-03T06:43:52.552Z,42.78
2022-12-03T06:46:20.874Z,45.13
2022-12-03T06:48:49.204Z,46.38
2022-12-03T06:51:17.564Z,40.30
2022-12-03T06:53:47.124Z,39.65
2022-12-03T06:56:18.838Z,45.60
2022-12-03T06:58:49.692Z,33.92
2022-12-03T07:01:18.085Z,41.08
2022-12-03T07:03:46.374Z,41.28
2022-12-03T07:06:14.923Z,39.88
2022-12-03T07:08:43.190Z,41.88
2022-12-03T07:11:26.653Z,36.67
2022-12-03T07:13:56.252Z,46.83
2022-12-03T07:16:28.171Z,39.42
2022-12-03T07:18:56.885Z,42.70
2022-12-03T07:21:25.417Z,40.75
2022-12-03T07:23:53.671Z,34.13
2022-12-03T07:26:23.295Z,38.92
2022-12-03T07:28:51.535Z,39.80
2022-12-03T07:31:19.869Z,38.47
2022-12-03T07:33:48.129Z,32.88
2022-12-03T07:36:16.374Z,35.05
2022-12-03T07:38:44.740Z,35.60
2022-12-03T07:41:13.029Z,40.80
2022-12-03T07:43:42.672Z,33.35
2022-12-03T07:46:10.945Z,36.53
2022-12-03T07:48:39.241Z,39.72
2022-12-03T07:51:08.821Z,38.00
2022-12-03T07:53:38.740Z,39.85
2022-12-03T07:56:07.830Z,39.67
2022-12-03T07:58:36.099Z,42.20
2022-12-03T08:01:05.990Z,39.60
2022-12-03T08:03:34.375Z,35.72
2022-12-03T08:06:02.679Z,37.47
2022-12-03T08:08:30.913Z,36.65
2022-12-03T08:10:59.339Z,44.85
2022-12-03T08:13:28.649Z,36.03
2022-12-03T08:15:57.681Z,30.83
2022-12-03T08:18:28.758Z,36.22
2022-12-03T08:20:56.959Z,41.03
2022-12-03T08:23:26.384Z,38.97
2022-12-03T08:25:54.822Z,40.58
2022-12-03T08:28:25.753Z,39.83
2022-12-03T08:31:00.983Z,34.80
2022-12-03T08:33:33.619Z,27.92
2022-12-03T08:36:03.050Z,35.72
2022-12-03T08:38:31.286Z,38.47
2022-12-03T08:40:59.524Z,36.42
2022-12-03T08:43:29.222Z,27.60
2022-12-03T08:45:58.561Z,32.07
2022-12-03T08:48:32.456Z,36.55
2022-12-03T08:51:04.075Z,27.83
2022-12-03T08:53:35.014Z,34.95
2022-12-03T08:56:05.317Z,36.30
2022-12-03T08:58:40.124Z,33.63
2022-12-03T09:01:31.059Z,34.10
2022-12-03T09:04:15.519Z,35.88
2022-12-03T09:06:43.941Z,37.17
2022-12-03T09:09:12.143Z,34.97
2022-12-03T09:11:40.572Z,37.58
2022-12-03T09:14:11.476Z,33.20
2022-12-03T09:16:43.494Z,35.28
2022-12-03T09:19:13.145Z,33.38
2022-12-03T09:21:41.488Z,18.75
2022-12-03T09:24:09.871Z,36.88
2022-12-03T09:26:38.461Z,30.67
2022-12-03T09:29:11.937Z,32.45
2022-12-03T09:31:41.213Z,34.88
2022-12-03T09:34:09.735Z,33.88
2022-12-03T09:36:39.454Z,32.95
2022-12-03T09:39:07.921Z,36.77
2022-12-03T09:41:36.251Z,35.63
2022-12-03T09:44:05.573Z,31.35
2022-12-03T09:46:49.565Z,33.15
2022-12-03T09:49:19.063Z,29.77
2022-12-03T09:51:48.768Z,28.73
2022-12-03T09:54:23.790Z,32.28
2022-12-03T09:56:52.480Z,34.72
2022-12-03T09:59:22.361Z,32.55
2022-12-03T10:01:50.854Z,32.20
2022-12-03T10:04:20.461Z,29.77
2022-12-03T10:06:50.343Z,35.83
2022-12-03T10:09:23.730Z,28.85
2022-12-03T10:11:52.010Z,28.80
2022-12-03T10:14:20.559Z,32.15
2022-12-03T10:16:49.101Z,39.58
2022-12-03T10:19:21.109Z,30.60
2022-12-03T10:21:50.953Z,34.10
2022-12-03T10:24:25.698Z,33.40
2022-12-03T10:26:55.388Z,26.33
2022-12-03T10:29:29.925Z,31.30
2022-12-03T10:32:03.457Z,29.83
2022-12-03T10:34:33.597Z,32.22
2022-12-03T10:37:18.480Z,25.80
2022-12-03T10:39:58.267Z,30.83
2022-12-03T10:42:27.438Z,27.67
2022-12-03T10:45:12.704Z,32.45
2022-12-03T10:47:41.139Z,46.20
2022-12-03T10:50:16.980Z,34.13
2022-12-03T10:52:46.984Z,29.75
2022-12-03T10:55:16.331Z,29.80
2022-12-03T10:57:46.050Z,31.83
2022-12-03T11:00:18.250Z,33.80
2022-12-03T11:02:50.368Z,32.75
2022-12-03T11:05:26.678Z,35.00
2022-12-03T11:07:56.791Z,36.42
2022-12-03T11:10:25.514Z,41.03
2022-12-03T11:13:28.318Z,30.60
2022-12-03T11:15:57.175Z,28.10
2022-12-03T11:19:00.161Z,35.63
2022-12-03T11:21:28.655Z,29.90
2022-12-03T11:24:06.516Z,30.95
2022-12-03T11:27:26.718Z,28.45
2022-12-03T11:30:02.287Z,39.42
2022-12-03T11:33:09.729Z,32.28
2022-12-03T11:36:03.143Z,26.60
2022-12-03T11:38:52.281Z,24.20
2022-12-03T11:41:28.106Z,29.40
2022-12-03T11:44:28.311Z,28.40
2022-12-03T11:47:02.164Z,31.70
2022-12-03T11:49:37.407Z,32.03
2022-12-03T11:52:20.198Z,31.10
2022-12-03T11:54:50.800Z,31.52
2022-12-03T12:00:19.768Z,34.75
2022-12-03T12:02:49.139Z,26.05
2022-12-03T12:05:35.557Z,31.90
2022-12-03T12:08:04.432Z,33.92
2022-12-03T12:10:44.541Z,31.20
2022-12-03T12:13:55.507Z,31.23
2022-12-03T12:16:52.137Z,30.80
2022-12-03T12:19:34.915Z,33.22
2022-12-03T12:22:31.201Z,34.15
2022-12-03T12:25:00.701Z,33.25
2022-12-03T12:27:37.529Z,38.70
2022-12-03T12:30:08.191Z,37.63
2022-12-03T12:35:17.848Z,29.17
2022-12-03T12:37:56.805Z,37.63
2022-12-03T12:40:29.890Z,23.33
2022-12-03T12:42:59.682Z,33.45
2022-12-03T12:45:29.923Z,32.85
2022-12-03T12:48:05.102Z,38.15
2022-12-03T12:50:34.063Z,36.97
2022-12-03T12:53:04.555Z,25.30
2022-12-03T12:55:32.761Z,26.45
2022-12-03T12:58:03.608Z,31.85
2022-12-03T13:00:32.012Z,31.85
2022-12-03T13:03:03.354Z,33.67
2022-12-03T13:05:38.343Z,29.92
2022-12-03T13:08:20.414Z,31.40
2022-12-03T13:10:49.097Z,34.67
2022-12-03T13:13:21.607Z,38.33
2022-12-03T13:15:53.564Z,32.83
2022-12-03T13:18:27.189Z,33.95
2022-12-03T13:20:56.202Z,32.28
2022-12-03T13:23:28.883Z,43.22
2022-12-03T13:26:04.550Z,43.22
2022-12-03T13:28:42.534Z,37.25
2022-12-03T13:31:22.427Z,33.55
2022-12-03T13:33:52.640Z,35.25
2022-12-03T13:36:22.693Z,34.10
2022-12-03T13:38:51.060Z,32.65
2022-12-03T13:41:38.435Z,36.38
2022-12-03T13:44:24.650Z,40.47
2022-12-03T13:46:52.918Z,26.35
2022-12-03T13:49:24.055Z,32.25
2022-12-03T13:51:52.383Z,28.42
2022-12-03T13:54:22.937Z,34.10
2022-12-03T13:59:24.432Z,31.58
2022-12-03T14:01:54.304Z,31.85
2022-12-03T14:04:23.996Z,24.33
2022-12-03T14:06:52.280Z,31.52
2022-12-03T14:09:20.533Z,26.67
2022-12-03T14:12:06.317Z,33.30
2022-12-03T14:14:34.558Z,35.45
2022-12-03T14:17:04.422Z,32.70
2022-12-03T14:19:34.136Z,31.75
2022-12-03T14:22:02.471Z,33.58
2022-12-03T14:24:30.694Z,33.78
2022-12-03T14:26:58.921Z,36.97
2022-12-03T14:29:27.153Z,33.22
2022-12-03T14:31:55.504Z,28.77
2022-12-03T14:34:23.767Z,29.20
2022-12-03T14:36:53.374Z,32.03
2022-12-03T14:39:21.836Z,31.83
2022-12-03T14:42:07.571Z,33.58
2022-12-03T14:44:35.855Z,34.78
2022-12-03T14:47:04.620Z,33.50
2022-12-03T14:49:32.939Z,30.30
2022-12-03T14:52:02.553Z,34.05
2022-12-03T14:54:30.935Z,32.00
2022-12-03T14:56:59.164Z,30.05
2022-12-03T14:59:28.014Z,31.83
2022-12-03T15:01:56.652Z,28.98
2022-12-03T15:04:25.072Z,28.52
2022-12-03T15:06:53.314Z,29.40
2022-12-03T15:09:22.906Z,32.50
2022-12-03T15:11:51.329Z,37.80
2022-12-03T15:14:19.590Z,36.50
2022-12-03T15:16:47.924Z,31.00
2022-12-03T15:19:19.979Z,40.42
2022-12-03T15:21:48.252Z,37.22
2022-12-03T15:24:17.087Z,34.15
2022-12-03T15:26:46.747Z,34.80
2022-12-03T15:29:14.942Z,35.83
2022-12-03T15:31:43.228Z,37.70
2022-12-03T15:34:11.557Z,42.33
2022-12-03T15:36:39.806Z,41.30
2022-12-03T15:39:08.067Z,39.65
2022-12-03T15:41:36.611Z,27.83
2022-12-03T15:44:06.300Z,37.72
2022-12-03T15:46:34.600Z,39.33
2022-12-03T15:49:02.853Z,37.22
2022-12-03T15:51:31.271Z,35.20
2022-12-03T15:53:59.495Z,33.10
2022-12-03T15:56:27.752Z,33.75
2022-12-03T15:58:56.019Z,34.55
2022-12-03T16:01:25.796Z,33.70
2022-12-03T16:03:54.025Z,27.88
2022-12-03T16:06:22.243Z,29.45
2022-12-03T16:08:50.519Z,36.33
2022-12-03T16:11:18.779Z,29.40
2022-12-03T16:13:47.035Z,25.83
2022-12-03T16:16:15.346Z,38.55
2022-12-03T16:18:45.027Z,36.00
2022-12-03T16:21:13.344Z,36.42
2022-12-03T16:23:41.675Z,31.13
2022-12-03T16:26:09.919Z,35.17
2022-12-03T16:28:38.346Z,35.72
2022-12-03T16:31:07.002Z,37.40
2022-12-03T16:33:35.451Z,35.75
2022-12-03T16:36:05.490Z,35.72
2022-12-03T16:38:34.038Z,34.25
2022-12-03T16:41:02.369Z,35.97
2022-12-03T16:43:30.679Z,40.95
2022-12-03T16:46:20.894Z,30.67
2022-12-03T16:48:49.376Z,37.45
2022-12-03T16:51:20.045Z,34.88
2022-12-03T16:53:48.377Z,36.45
2022-12-03T16:56:16.714Z,38.40
2022-12-03T16:58:45.271Z,38.35
2022-12-03T17:01:13.707Z,34.85
2022-12-03T17:03:42.242Z,30.92
2022-12-03T17:06:10.505Z,41.22
2022-12-03T17:08:44.372Z,29.10
2022-12-03T17:11:15.718Z,34.17
2022-12-03T17:13:43.956Z,40.78
2022-12-03T17:16:12.218Z,42.90
2022-12-03T17:18:40.595Z,37.25
2022-12-03T17:21:08.910Z,44.47
2022-12-03T17:23:37.122Z,42.03
2022-12-03T17:26:06.800Z,34.40
2022-12-03T17:28:36.279Z,32.67
2022-12-03T17:31:04.644Z,33.88
2022-12-03T17:33:33.043Z,32.13
2022-12-03T17:36:01.321Z,38.58
2022-12-03T17:38:32.734Z,36.55
2022-12-03T17:41:04.196Z,38.28
2022-12-03T17:43:33.850Z,40.78
2022-12-03T17:46:02.153Z,40.70
2022-12-03T17:48:31.440Z,39.40
2022-12-03T17:50:59.823Z,35.78
2022-12-03T17:53:28.197Z,39.15
2022-12-03T17:55:56.451Z,33.33
2022-12-03T17:58:26.612Z,32.33
2022-12-03T18:01:01.989Z,40.85
2022-12-03T18:03:31.287Z,32.17
2022-12-03T18:05:59.619Z,33.90
2022-12-03T18:08:27.897Z,35.05
2022-12-03T18:10:56.318Z,34.50
2022-12-03T18:13:24.539Z,35.58
2022-12-03T18:15:53.677Z,33.75
2022-12-03T18:18:23.832Z,34.22
2022-12-03T18:20:54.192Z,36.38
2022-12-03T18:23:22.533Z,32.58
2022-12-03T18:25:50.896Z,31.63
2022-12-03T18:28:19.306Z,30.38
2022-12-03T18:30:52.234Z,36.60
2022-12-03T18:33:21.401Z,35.30
2022-12-03T18:35:53.404Z,34.08
2022-12-03T18:38:22.010Z,38.22
2022-12-03T18:40:51.553Z,31.85
2022-12-03T18:43:19.870Z,37.00
2022-12-03T18:45:48.156Z,30.80
2022-12-03T18:48:18.179Z,33.22
2022-12-03T18:50:47.174Z,35.20
2022-12-03T18:53:19.220Z,29.48
2022-12-03T18:55:48.117Z,33.72
2022-12-03T18:58:16.367Z,34.40
2022-12-03T19:00:44.701Z,31.92
2022-12-03T19:03:13.045Z,34.58
2022-12-03T19:05:41.316Z,30.67
2022-12-03T19:08:14.758Z,32.97
2022-12-03T19:10:44.626Z,31.88
2022-12-03T19:13:13.220Z,35.47
2022-12-03T19:15:41.477Z,31.27
2022-12-03T19:18:09.766Z,33.38
2022-12-03T19:20:41.041Z,36.53
2022-12-03T19:23:09.525Z,41.53
2022-12-03T19:25:37.800Z,37.97
2022-12-03T19:28:07.556Z,37.97
2022-12-03T19:30:35.865Z,34.97
2022-12-03T19:33:04.114Z,32.97
2022-12-03T19:35:32.693Z,31.10
2022-12-03T19:38:00.945Z,28.02
2022-12-03T19:40:29.308Z,36.70
2022-12-03T19:42:57.563Z,32.40
2022-12-03T19:45:27.315Z,37.70
2022-12-03T19:47:55.672Z,32.70
2022-12-03T19:50:23.946Z,36.13
2022-12-03T19:52:52.196Z,36.47
2022-12-03T19:55:20.683Z,34.10
2022-12-03T19:57:49.097Z,36.90
2022-12-03T20:00:17.896Z,34.60
2022-12-03T20:02:49.425Z,49.20
2022-12-03T20:05:17.907Z,38.88
2022-12-03T20:07:46.226Z,32.60
2022-12-03T20:10:14.518Z,37.67
2022-12-03T20:12:42.980Z,30.10
2022-12-03T20:15:12.521Z,29.40
2022-12-03T20:17:40.880Z,35.30
2022-12-03T20:20:11.728Z,27.05
2022-12-03T20:22:40.483Z,27.13
2022-12-03T20:25:09.465Z,32.13
2022-12-03T20:27:38.337Z,30.67
2022-12-03T20:30:07.818Z,32.10
2022-12-03T20:32:39.420Z,27.40
2022-12-03T20:35:13.384Z,28.27
2022-12-03T20:37:41.762Z,29.02
2022-12-03T20:40:10.808Z,27.42
2022-12-03T20:42:39.190Z,26.90
2022-12-03T20:45:08.696Z,26.13
2022-12-03T20:47:37.022Z,28.90
2022-12-03T20:50:06.064Z,30.55
2022-12-03T20:52:35.676Z,27.90
2022-12-03T20:55:04.410Z,28.67
2022-12-03T20:57:32.641Z,25.33
2022-12-03T21:00:00.859Z,30.35
2022-12-03T21:02:29.213Z,27.25
2022-12-03T21:04:57.650Z,29.77
2022-12-03T21:07:26.206Z,30.92
2022-12-03T21:09:56.122Z,29.00
2022-12-03T21:12:24.606Z,29.00
2022-12-03T21:14:52.890Z,37.67
2022-12-03T21:17:21.212Z,34.03
2022-12-03T21:19:49.617Z,37.40
2022-12-03T21:22:17.840Z,37.10
2022-12-03T21:24:46.352Z,36.65
2022-12-03T21:27:21.407Z,36.25
2022-12-03T21:29:50.215Z,34.60
2022-12-03T21:32:18.584Z,35.75
2022-12-03T21:34:46.856Z,28.98
2022-12-03T21:37:15.210Z,35.15
2022-12-03T21:39:43.496Z,34.53
2022-12-03T21:42:34.312Z,37.58
2022-12-03T21:45:01.302Z,31.65
2022-12-03T21:47:35.093Z,34.13
2022-12-03T21:50:06.241Z,38.35
2022-12-03T21:52:34.992Z,37.28
2022-12-03T21:55:03.228Z,40.30
2022-12-03T21:57:31.422Z,41.33
2022-12-03T22:00:01.021Z,39.53
2022-12-03T22:02:29.398Z,42.22
2022-12-03T22:04:57.845Z,36.72
2022-12-03T22:07:26.400Z,34.47
2022-12-03T22:09:54.889Z,37.38
2022-12-03T22:12:23.458Z,33.35
2022-12-03T22:14:51.742Z,32.40
2022-12-03T22:17:21.357Z,31.90
2022-12-03T22:19:49.583Z,37.42
2022-12-03T22:22:17.870Z,35.40
2022-12-03T22:24:46.663Z,42.15
2022-12-03T22:27:15.385Z,31.48
2022-12-03T22:29:43.621Z,37.55
2022-12-03T22:32:11.897Z,41.78
2022-12-03T22:34:42.420Z,43.47
2022-12-03T22:37:10.677Z,41.72
2022-12-03T22:39:39.023Z,43.50
2022-12-03T22:42:07.279Z,48.92
2022-12-03T22:44:35.678Z,43.25
2022-12-03T22:47:04.338Z,35.63
2022-12-03T22:49:32.576Z,37.72
2022-12-03T22:52:02.207Z,40.25
2022-12-03T22:54:30.448Z,40.27
2022-12-03T22:56:58.696Z,44.28
2022-12-03T22:59:27.006Z,38.45
2022-12-03T23:01:55.332Z,42.92
2022-12-03T23:04:23.624Z,45.53
2022-12-03T23:06:51.907Z,41.40
2022-12-03T23:09:21.758Z,39.40
2022-12-03T23:11:50.011Z,42.78
2022-12-03T23:14:18.325Z,37.35
2022-12-03T23:16:46.542Z,39.75
2022-12-03T23:19:14.844Z,49.67
2022-12-03T23:21:43.221Z,42.80
2022-12-03T23:24:11.505Z,45.58
2022-12-03T23:26:41.115Z,36.40
2022-12-03T23:29:09.439Z,36.25
2022-12-03T23:31:37.701Z,40.45
2022-12-03T23:34:06.195Z,35.80
2022-12-03T23:36:35.043Z,33.05
2022-12-03T23:39:03.315Z,39.40
2022-12-03T23:41:31.672Z,45.00
2022-12-03T23:44:01.301Z,43.78
2022-12-03T23:46:29.659Z,41.92
2022-12-03T23:48:59.553Z,41.53
2022-12-03T23:51:28.123Z,42.90
2022-12-03T23:53:57.286Z,40.47
2022-12-03T23:56:27.073Z,42.17
2022-12-03T23:58:55.502Z,32.75
